Time;durP1;ratioP1;P1;durP2;ratioP2;P2;SDS_P1;SDS_P2;PMS_P1;PMS_P2;Temp;Humidity;BMP_temperature;BMP_pressure;BME280_temperature;BME280_humidity;BME280_pressure;Samples;Min_cycle;Max_cycle;Signal;HPM_P1;HPM_P2
2022/11/28 00:01:38;;;;;;;51.00;23.10;;;;;;;;;;106753;1307;22072;-76
2022/11/28 00:04:08;;;;;;;54.60;23.50;;;;;;;;;;106857;1307;22118;-77
2022/11/28 00:06:38;;;;;;;51.10;24.20;;;;;;;;;;106728;1302;22090;-76
2022/11/28 00:09:08;;;;;;;53.50;24.00;;;;;;;;;;106897;1307;22127;-77
2022/11/28 00:11:42;;;;;;;53.30;22.60;;;;;;;;;;106671;1310;22103;-77
2022/11/28 00:21:11;;;;;;;49.80;21.10;;;;;;;;;;100382;1341;545694;-82
2022/11/28 00:23:38;;;;;;;49.30;20.30;;;;;;;;;;102746;1316;24267;-79
2022/11/28 00:26:05;;;;;;;56.50;23.10;;;;;;;;;;102540;1317;26484;-79
2022/11/28 00:28:32;;;;;;;55.70;23.00;;;;;;;;;;102734;1317;22545;-85
2022/11/28 00:30:59;;;;;;;53.50;22.60;;;;;;;;;;102442;1304;25373;-82
2022/11/28 00:33:26;;;;;;;45.50;21.10;;;;;;;;;;102451;1319;24300;-81
2022/11/28 00:35:59;;;;;;;50.80;21.10;;;;;;;;;;101627;1316;1351047;-80
2022/11/28 00:38:27;;;;;;;45.40;20.50;;;;;;;;;;102674;1311;22856;-80
2022/11/28 00:40:59;;;;;;;48.50;20.90;;;;;;;;;;102650;1317;22474;-81
2022/11/28 00:43:26;;;;;;;53.90;23.00;;;;;;;;;;102736;1316;22611;-81
2022/11/28 00:45:53;;;;;;;52.30;22.90;;;;;;;;;;102832;1316;24244;-82
2022/11/28 00:48:21;;;;;;;49.80;22.30;;;;;;;;;;102627;1311;25357;-82
2022/11/28 00:50:47;;;;;;;52.90;23.30;;;;;;;;;;102974;1314;22625;-81
2022/11/28 00:53:14;;;;;;;53.00;21.60;;;;;;;;;;102722;1317;22477;-79
2022/11/28 00:55:41;;;;;;;53.30;21.50;;;;;;;;;;102652;1316;24826;-81
2022/11/28 00:58:08;;;;;;;50.20;22.10;;;;;;;;;;102606;1313;22608;-81
2022/11/28 01:00:35;;;;;;;54.70;22.30;;;;;;;;;;102717;1317;27555;-78
2022/11/28 01:03:02;;;;;;;45.70;20.70;;;;;;;;;;102725;1316;22463;-81
2022/11/28 01:05:28;;;;;;;41.90;19.90;;;;;;;;;;102516;1316;22491;-79
2022/11/28 01:07:55;;;;;;;47.10;20.80;;;;;;;;;;102873;1316;22500;-80
2022/11/28 01:10:22;;;;;;;46.90;20.60;;;;;;;;;;102782;1316;24349;-80
2022/11/28 01:12:49;;;;;;;50.50;20.20;;;;;;;;;;102798;1308;22514;-83
2022/11/28 01:15:15;;;;;;;42.70;18.30;;;;;;;;;;102986;1313;22467;-80
2022/11/28 01:17:42;;;;;;;48.40;19.10;;;;;;;;;;102971;1313;22484;-84
2022/11/28 01:20:09;;;;;;;47.80;20.60;;;;;;;;;;103595;1303;24397;-81
2022/11/28 01:22:35;;;;;;;48.40;19.50;;;;;;;;;;103508;1304;22888;-80
2022/11/28 01:25:02;;;;;;;55.70;21.90;;;;;;;;;;103611;1304;25601;-81
2022/11/28 01:27:29;;;;;;;47.50;20.60;;;;;;;;;;103548;1304;24234;-81
2022/11/28 01:29:55;;;;;;;47.40;20.20;;;;;;;;;;103814;1304;25251;-80
2022/11/28 01:32:22;;;;;;;48.20;18.80;;;;;;;;;;103701;1304;25560;-86
2022/11/28 01:34:49;;;;;;;46.60;19.60;;;;;;;;;;103580;1294;22460;-79
2022/11/28 01:37:15;;;;;;;43.60;18.90;;;;;;;;;;103786;1303;22533;-85
2022/11/28 01:39:42;;;;;;;46.90;18.40;;;;;;;;;;103854;1296;22460;-81
2022/11/28 01:42:14;;;;;;;44.40;19.20;;;;;;;;;;103521;1298;22479;-83
2022/11/28 01:44:41;;;;;;;48.00;18.60;;;;;;;;;;103509;1304;25265;-81
2022/11/28 01:47:07;;;;;;;45.30;19.30;;;;;;;;;;103858;1304;23348;-81
2022/11/28 01:49:36;;;;;;;52.20;20.90;;;;;;;;;;103532;1304;22467;-82
2022/11/28 01:52:04;;;;;;;50.30;20.70;;;;;;;;;;103535;1304;25296;-83
2022/11/28 01:54:32;;;;;;;50.00;21.70;;;;;;;;;;103820;1303;24282;-85
2022/11/28 01:57:12;;;;;;;47.50;19.30;;;;;;;;;;103502;1304;22464;-83
2022/11/28 01:59:42;;;;;;;43.50;17.90;;;;;;;;;;103631;1304;24320;-80
2022/11/28 02:02:12;;;;;;;41.90;17.30;;;;;;;;;;103654;1304;24213;-81
2022/11/28 02:04:40;;;;;;;55.90;18.90;;;;;;;;;;103851;1304;22474;-82
2022/11/28 02:07:06;;;;;;;45.30;17.30;;;;;;;;;;103873;1295;22535;-80
2022/11/28 02:09:33;;;;;;;50.80;17.40;;;;;;;;;;103781;1304;22521;-85
2022/11/28 02:12:09;;;;;;;83.90;18.60;;;;;;;;;;103781;1304;25257;-79
2022/11/28 02:14:38;;;;;;;51.00;17.70;;;;;;;;;;103594;1303;22462;-82
2022/11/28 02:17:05;;;;;;;38.20;17.40;;;;;;;;;;103611;1306;25308;-80
2022/11/28 02:19:35;;;;;;;40.40;17.40;;;;;;;;;;103541;1306;24339;-84
2022/11/28 02:22:11;;;;;;;41.70;18.30;;;;;;;;;;103617;1305;23061;-84
2022/11/28 02:24:56;;;;;;;35.30;16.00;;;;;;;;;;103727;1304;25309;-81
2022/11/28 02:27:26;;;;;;;38.60;15.80;;;;;;;;;;103701;1275;25203;-83
2022/11/28 02:30:11;;;;;;;36.10;16.50;;;;;;;;;;103839;1304;22468;-84
2022/11/28 02:32:38;;;;;;;33.20;15.70;;;;;;;;;;103782;1304;22465;-81
2022/11/28 02:35:20;;;;;;;35.20;16.70;;;;;;;;;;103554;1298;22477;-84
2022/11/28 02:38:06;;;;;;;35.10;17.20;;;;;;;;;;103588;1307;22469;-80
2022/11/28 02:40:56;;;;;;;36.80;16.00;;;;;;;;;;103561;1306;22566;-85
2022/11/28 02:43:22;;;;;;;35.80;15.90;;;;;;;;;;103634;1303;22705;-82
2022/11/28 02:46:08;;;;;;;36.70;15.10;;;;;;;;;;103638;1304;25402;-81
2022/11/28 02:48:40;;;;;;;31.40;14.70;;;;;;;;;;103930;1304;25765;-83
2022/11/28 02:51:20;;;;;;;30.10;13.30;;;;;;;;;;103590;1303;25289;-80
2022/11/28 02:53:48;;;;;;;30.80;13.60;;;;;;;;;;103856;1305;22730;-80
2022/11/28 02:56:15;;;;;;;37.30;15.50;;;;;;;;;;103691;1304;22463;-82
2022/11/28 02:58:42;;;;;;;34.60;15.10;;;;;;;;;;103501;1306;22466;-85
2022/11/28 03:01:15;;;;;;;32.70;14.60;;;;;;;;;;103584;1306;25408;-81
2022/11/28 03:04:01;;;;;;;31.70;13.70;;;;;;;;;;103617;1304;23062;-82
2022/11/28 03:06:37;;;;;;;29.10;13.80;;;;;;;;;;103592;1304;24314;-81
2022/11/28 03:09:04;;;;;;;31.00;13.60;;;;;;;;;;103588;1304;25301;-81
2022/11/28 03:11:36;;;;;;;33.30;15.10;;;;;;;;;;103576;1304;22473;-83
2022/11/28 03:14:18;;;;;;;33.30;15.60;;;;;;;;;;103809;1304;25338;-80
2022/11/28 03:16:50;;;;;;;31.70;14.30;;;;;;;;;;103574;1298;21661;-81
2022/11/28 03:19:24;;;;;;;28.00;13.20;;;;;;;;;;103564;1306;22461;-81
2022/11/28 03:22:02;;;;;;;29.00;13.60;;;;;;;;;;103549;1306;23605;-82
2022/11/28 03:24:35;;;;;;;34.80;13.40;;;;;;;;;;103813;1304;25248;-80
2022/11/28 03:27:14;;;;;;;32.90;13.60;;;;;;;;;;103828;1304;25269;-79
2022/11/28 03:29:43;;;;;;;31.20;13.20;;;;;;;;;;103752;1304;25221;-83
2022/11/28 03:32:15;;;;;;;28.90;12.80;;;;;;;;;;103824;1304;22483;-83
2022/11/28 03:34:44;;;;;;;29.80;12.50;;;;;;;;;;103620;1305;24285;-85
2022/11/28 03:37:16;;;;;;;28.90;11.90;;;;;;;;;;107109;1304;22906;-78
2022/11/28 03:39:47;;;;;;;29.70;12.80;;;;;;;;;;106926;1292;22091;-79
2022/11/28 03:42:21;;;;;;;25.60;11.80;;;;;;;;;;106940;1306;22687;-79
2022/11/28 03:44:54;;;;;;;30.00;12.60;;;;;;;;;;106917;1301;22071;-78
2022/11/28 03:47:23;;;;;;;27.20;11.40;;;;;;;;;;106960;1304;22761;-79
2022/11/28 03:49:51;;;;;;;25.20;11.40;;;;;;;;;;106961;1304;22080;-79
2022/11/28 03:52:27;;;;;;;25.60;10.70;;;;;;;;;;106961;1304;22087;-79
2022/11/28 03:54:56;;;;;;;27.50;11.00;;;;;;;;;;107060;1305;22072;-79
2022/11/28 03:57:28;;;;;;;25.70;10.50;;;;;;;;;;107106;1306;22059;-77
2022/11/28 03:59:57;;;;;;;24.10;10.80;;;;;;;;;;107003;1297;22129;-77
2022/11/28 04:02:29;;;;;;;24.20;11.00;;;;;;;;;;106994;1291;21925;-77
2022/11/28 04:05:16;;;;;;;27.50;11.50;;;;;;;;;;107075;1304;22086;-76
2022/11/28 04:07:53;;;;;;;26.20;11.90;;;;;;;;;;106564;1312;22138;-76
2022/11/28 04:10:26;;;;;;;27.50;11.80;;;;;;;;;;106517;1312;22149;-76
2022/11/28 04:13:09;;;;;;;29.10;12.10;;;;;;;;;;106465;1312;22104;-77
2022/11/28 04:15:38;;;;;;;25.70;11.90;;;;;;;;;;106294;1312;22114;-76
2022/11/28 04:18:15;;;;;;;22.30;9.80;;;;;;;;;;106463;1312;22367;-77
2022/11/28 04:20:45;;;;;;;27.70;10.70;;;;;;;;;;106285;1312;22103;-77
2022/11/28 04:23:13;;;;;;;22.30;9.60;;;;;;;;;;106286;1312;22163;-77
2022/11/28 04:25:42;;;;;;;24.40;11.40;;;;;;;;;;106510;1311;21988;-77
2022/11/28 04:28:12;;;;;;;25.60;11.50;;;;;;;;;;106308;1312;22197;-77
2022/11/28 04:30:39;;;;;;;25.30;11.50;;;;;;;;;;106292;1312;21974;-77
2022/11/28 04:33:08;;;;;;;23.70;10.80;;;;;;;;;;106504;1312;22316;-77
2022/11/28 04:35:38;;;;;;;23.90;10.00;;;;;;;;;;106320;1312;22116;-77
2022/11/28 04:38:06;;;;;;;21.80;9.70;;;;;;;;;;106425;1312;22094;-77
2022/11/28 04:40:36;;;;;;;26.30;10.20;;;;;;;;;;106325;1312;22181;-77
2022/11/28 04:43:07;;;;;;;28.00;12.40;;;;;;;;;;106288;1312;22135;-76
2022/11/28 04:45:44;;;;;;;25.70;12.20;;;;;;;;;;106577;1307;22156;-76
2022/11/28 04:48:11;;;;;;;27.90;12.80;;;;;;;;;;106921;1303;22820;-77
2022/11/28 04:50:48;;;;;;;26.10;12.40;;;;;;;;;;106952;1303;22068;-77
2022/11/28 04:53:26;;;;;;;26.10;11.70;;;;;;;;;;107042;1305;22076;-76
2022/11/28 04:56:01;;;;;;;24.90;10.80;;;;;;;;;;107011;1306;22110;-76
2022/11/28 04:58:37;;;;;;;27.30;11.30;;;;;;;;;;106925;1306;22824;-76
2022/11/28 05:01:05;;;;;;;23.90;10.30;;;;;;;;;;106788;1306;22090;-77
2022/11/28 05:03:32;;;;;;;24.40;11.00;;;;;;;;;;106798;1306;22108;-77
2022/11/28 05:05:59;;;;;;;24.50;11.00;;;;;;;;;;106940;1305;22120;-77
2022/11/28 05:08:25;;;;;;;22.50;10.20;;;;;;;;;;106964;1307;22151;-76
2022/11/28 05:10:52;;;;;;;23.60;10.20;;;;;;;;;;107044;1306;23022;-76
2022/11/28 05:13:19;;;;;;;21.70;10.00;;;;;;;;;;106935;1306;22721;-77
2022/11/28 05:15:46;;;;;;;21.60;10.20;;;;;;;;;;106892;1304;22317;-77
2022/11/28 05:18:12;;;;;;;24.50;9.40;;;;;;;;;;106771;1302;22899;-77
2022/11/28 05:20:39;;;;;;;21.90;9.80;;;;;;;;;;107022;1287;22049;-76
2022/11/28 05:23:06;;;;;;;24.70;10.80;;;;;;;;;;106908;1306;22059;-77
2022/11/28 05:25:33;;;;;;;23.40;10.70;;;;;;;;;;106762;1306;22055;-77
2022/11/28 05:27:59;;;;;;;26.30;11.80;;;;;;;;;;106917;1306;22031;-77
2022/11/28 05:30:26;;;;;;;24.10;10.90;;;;;;;;;;106934;1304;22094;-77
2022/11/28 05:32:53;;;;;;;23.60;11.20;;;;;;;;;;107142;1299;21991;-77
2022/11/28 05:35:19;;;;;;;26.30;11.70;;;;;;;;;;107290;1285;22091;-76
2022/11/28 05:37:46;;;;;;;25.80;10.70;;;;;;;;;;106980;1298;22057;-76
2022/11/28 05:40:13;;;;;;;25.30;10.90;;;;;;;;;;106943;1306;21987;-77
2022/11/28 05:42:39;;;;;;;25.00;10.80;;;;;;;;;;106936;1306;22125;-77
2022/11/28 05:45:06;;;;;;;23.90;10.60;;;;;;;;;;106886;1307;22113;-76
2022/11/28 05:47:33;;;;;;;21.80;10.50;;;;;;;;;;106886;1307;21899;-77
2022/11/28 05:50:00;;;;;;;21.70;10.00;;;;;;;;;;106972;1307;22136;-77
2022/11/28 05:52:28;;;;;;;23.00;10.90;;;;;;;;;;107181;1280;22085;-77
2022/11/28 05:54:55;;;;;;;25.40;11.00;;;;;;;;;;106955;1307;22857;-76
2022/11/28 05:57:21;;;;;;;22.10;10.40;;;;;;;;;;106946;1306;22105;-76
2022/11/28 05:59:48;;;;;;;22.40;10.40;;;;;;;;;;106879;1306;22860;-76
2022/11/28 06:02:15;;;;;;;23.60;9.40;;;;;;;;;;106898;1307;22096;-76
2022/11/28 06:04:42;;;;;;;21.90;10.70;;;;;;;;;;106934;1306;21971;-76
2022/11/28 06:07:08;;;;;;;23.70;10.30;;;;;;;;;;106895;1297;22071;-76
2022/11/28 06:09:35;;;;;;;22.00;9.10;;;;;;;;;;106932;1306;22630;-77
2022/11/28 06:12:02;;;;;;;21.40;10.00;;;;;;;;;;106960;1299;22069;-76
2022/11/28 06:14:29;;;;;;;23.30;10.40;;;;;;;;;;107165;1299;22145;-76
2022/11/28 06:16:55;;;;;;;26.80;11.50;;;;;;;;;;106879;1307;22956;-76
2022/11/28 06:19:22;;;;;;;26.20;11.00;;;;;;;;;;106655;1306;22116;-77
2022/11/28 06:21:49;;;;;;;22.10;10.20;;;;;;;;;;106732;1307;22650;-76
2022/11/28 06:24:15;;;;;;;24.30;10.70;;;;;;;;;;106736;1307;22123;-76
2022/11/28 06:26:42;;;;;;;23.00;10.00;;;;;;;;;;106896;1306;22069;-76
2022/11/28 06:29:09;;;;;;;22.50;9.60;;;;;;;;;;106898;1307;21952;-76
2022/11/28 06:31:36;;;;;;;25.80;11.00;;;;;;;;;;106897;1298;22127;-76
2022/11/28 06:34:03;;;;;;;23.90;10.20;;;;;;;;;;106958;1306;22024;-76
2022/11/28 06:36:29;;;;;;;22.40;9.90;;;;;;;;;;106901;1302;22803;-76
2022/11/28 06:38:56;;;;;;;25.40;10.80;;;;;;;;;;107145;1285;22662;-76
2022/11/28 06:41:23;;;;;;;27.80;11.00;;;;;;;;;;106879;1306;22083;-76
2022/11/28 06:43:50;;;;;;;27.30;10.90;;;;;;;;;;106941;1306;22184;-76
2022/11/28 06:46:17;;;;;;;20.80;11.10;;;;;;;;;;107052;1285;22729;-76
2022/11/28 06:48:45;;;;;;;26.20;12.80;;;;;;;;;;106845;1306;22106;-76
2022/11/28 06:51:12;;;;;;;28.20;13.20;;;;;;;;;;106773;1307;22226;-76
2022/11/28 06:53:39;;;;;;;27.00;13.30;;;;;;;;;;106895;1307;22546;-76
2022/11/28 06:56:16;;;;;;;32.50;14.00;;;;;;;;;;106897;1307;21941;-76
2022/11/28 06:58:43;;;;;;;33.40;14.50;;;;;;;;;;106866;1307;21962;-76
2022/11/28 07:01:11;;;;;;;30.80;13.70;;;;;;;;;;107093;1299;22097;-76
2022/11/28 07:03:38;;;;;;;28.50;12.10;;;;;;;;;;106845;1302;22083;-76
2022/11/28 07:06:05;;;;;;;29.60;12.90;;;;;;;;;;107079;1291;22600;-76
2022/11/28 07:08:32;;;;;;;27.50;12.50;;;;;;;;;;107107;1300;22064;-75
2022/11/28 07:11:06;;;;;;;26.70;12.80;;;;;;;;;;107138;1300;22049;-76
2022/11/28 07:13:33;;;;;;;27.10;12.00;;;;;;;;;;107066;1301;22773;-75
2022/11/28 07:15:59;;;;;;;24.20;11.20;;;;;;;;;;107109;1299;21996;-76
2022/11/28 07:18:26;;;;;;;25.70;10.80;;;;;;;;;;106893;1302;22002;-76
2022/11/28 07:20:53;;;;;;;26.80;12.30;;;;;;;;;;106712;1308;22098;-75
2022/11/28 07:23:19;;;;;;;30.70;13.60;;;;;;;;;;107126;1292;22927;-76
2022/11/28 07:25:46;;;;;;;29.90;13.70;;;;;;;;;;106900;1296;22345;-76
2022/11/28 07:28:13;;;;;;;32.40;13.40;;;;;;;;;;106759;1310;22780;-81
2022/11/28 07:30:40;;;;;;;29.40;13.60;;;;;;;;;;106868;1307;22071;-81
2022/11/28 07:33:06;;;;;;;34.50;14.90;;;;;;;;;;106936;1305;22790;-81
2022/11/28 07:35:33;;;;;;;33.40;14.80;;;;;;;;;;106704;1298;22057;-81
2022/11/28 07:38:00;;;;;;;35.80;15.50;;;;;;;;;;106921;1304;22061;-81
2022/11/28 07:40:27;;;;;;;31.60;15.00;;;;;;;;;;106764;1302;22121;-80
2022/11/28 07:42:53;;;;;;;31.90;14.10;;;;;;;;;;106724;1309;22045;-81
2022/11/28 07:45:20;;;;;;;32.60;13.90;;;;;;;;;;107113;1299;22819;-81
2022/11/28 07:47:46;;;;;;;34.00;14.90;;;;;;;;;;106893;1308;22663;-76
2022/11/28 07:50:13;;;;;;;33.80;15.40;;;;;;;;;;106874;1307;22629;-78
2022/11/28 07:52:40;;;;;;;34.30;14.60;;;;;;;;;;106927;1307;22116;-78
2022/11/28 07:55:06;;;;;;;32.40;14.70;;;;;;;;;;107178;1295;22075;-77
2022/11/28 07:57:33;;;;;;;32.00;15.00;;;;;;;;;;106919;1304;22066;-78
2022/11/28 08:00:00;;;;;;;35.20;15.80;;;;;;;;;;106833;1299;22756;-78
2022/11/28 08:02:31;;;;;;;31.10;14.50;;;;;;;;;;106768;1310;22073;-76
2022/11/28 08:04:58;;;;;;;29.10;14.10;;;;;;;;;;106888;1308;22767;-76
2022/11/28 08:07:25;;;;;;;29.00;13.80;;;;;;;;;;106902;1310;21967;-75
2022/11/28 08:09:52;;;;;;;32.90;14.70;;;;;;;;;;106870;1307;22651;-76
2022/11/28 08:12:19;;;;;;;32.00;15.90;;;;;;;;;;106910;1307;22062;-76
2022/11/28 08:14:46;;;;;;;33.80;16.80;;;;;;;;;;106894;1307;22157;-76
2022/11/28 08:17:12;;;;;;;32.50;15.60;;;;;;;;;;106855;1308;22820;-76
2022/11/28 08:19:39;;;;;;;33.50;15.10;;;;;;;;;;106648;1310;22907;-76
2022/11/28 08:22:07;;;;;;;34.10;15.30;;;;;;;;;;106569;1310;22107;-76
2022/11/28 08:24:33;;;;;;;30.90;15.10;;;;;;;;;;106738;1302;22655;-76
2022/11/28 08:27:01;;;;;;;27.60;14.80;;;;;;;;;;106693;1310;22205;-76
2022/11/28 08:29:28;;;;;;;33.50;16.00;;;;;;;;;;106672;1309;22078;-76
2022/11/28 08:31:55;;;;;;;28.60;13.80;;;;;;;;;;106709;1308;22083;-74
2022/11/28 08:34:21;;;;;;;27.70;13.80;;;;;;;;;;106860;1310;22095;-75
2022/11/28 08:36:49;;;;;;;30.30;14.40;;;;;;;;;;106716;1309;22079;-75
2022/11/28 08:39:16;;;;;;;35.00;14.30;;;;;;;;;;106853;1310;21776;-75
2022/11/28 08:41:43;;;;;;;33.60;15.10;;;;;;;;;;106720;1309;22672;-75
2022/11/28 08:44:10;;;;;;;29.30;14.70;;;;;;;;;;106749;1309;22130;-76
2022/11/28 08:46:38;;;;;;;30.80;15.50;;;;;;;;;;106621;1310;22070;-76
2022/11/28 08:49:04;;;;;;;34.60;16.40;;;;;;;;;;107011;1301;22603;-75
2022/11/28 08:51:32;;;;;;;48.40;25.90;;;;;;;;;;106807;1310;22037;-75
2022/11/28 08:53:59;;;;;;;33.70;16.70;;;;;;;;;;107025;1303;22104;-75
2022/11/28 08:56:26;;;;;;;33.40;15.30;;;;;;;;;;106854;1308;22735;-74
2022/11/28 08:58:53;;;;;;;31.80;15.00;;;;;;;;;;107100;1291;22116;-75
2022/11/28 09:01:22;;;;;;;44.90;24.70;;;;;;;;;;106689;1309;22819;-76
2022/11/28 09:03:49;;;;;;;36.30;17.10;;;;;;;;;;106744;1309;22248;-76
2022/11/28 09:06:17;;;;;;;32.90;15.20;;;;;;;;;;106723;1314;22069;-75
2022/11/28 09:08:44;;;;;;;30.70;15.10;;;;;;;;;;106759;1300;22357;-76
2022/11/28 09:11:13;;;;;;;36.00;16.10;;;;;;;;;;106755;1310;22788;-75
2022/11/28 09:13:41;;;;;;;28.90;14.10;;;;;;;;;;106865;1310;22077;-75
2022/11/28 09:16:08;;;;;;;33.00;14.90;;;;;;;;;;106702;1310;22160;-75
2022/11/28 09:18:36;;;;;;;30.90;15.20;;;;;;;;;;106764;1310;22435;-75
2022/11/28 09:21:08;;;;;;;33.70;16.10;;;;;;;;;;106689;1310;22079;-75
2022/11/28 09:23:39;;;;;;;32.80;16.00;;;;;;;;;;106638;1311;21961;-76
2022/11/28 09:26:08;;;;;;;29.30;14.40;;;;;;;;;;106656;1310;22638;-76
2022/11/28 09:28:35;;;;;;;32.60;15.80;;;;;;;;;;106609;1310;21830;-75
2022/11/28 09:31:02;;;;;;;35.50;15.00;;;;;;;;;;106646;1298;22109;-75
2022/11/28 09:33:30;;;;;;;31.30;14.90;;;;;;;;;;106677;1310;22710;-75
2022/11/28 09:35:57;;;;;;;31.10;13.50;;;;;;;;;;106711;1307;22631;-75
2022/11/28 09:38:25;;;;;;;27.10;12.90;;;;;;;;;;106722;1310;22059;-75
2022/11/28 09:40:53;;;;;;;28.80;13.70;;;;;;;;;;107059;1303;22064;-75
2022/11/28 09:43:32;;;;;;;24.60;11.20;;;;;;;;;;106584;1310;22076;-75
2022/11/28 09:46:00;;;;;;;27.10;11.60;;;;;;;;;;106665;1310;22899;-75
2022/11/28 09:48:42;;;;;;;27.20;13.50;;;;;;;;;;106666;1310;22150;-75
2022/11/28 09:51:21;;;;;;;25.90;13.10;;;;;;;;;;106686;1310;22350;-76
2022/11/28 09:53:56;;;;;;;28.80;12.90;;;;;;;;;;106663;1301;22083;-75
2022/11/28 09:56:23;;;;;;;28.80;13.50;;;;;;;;;;106735;1310;22117;-75
2022/11/28 09:58:54;;;;;;;28.50;13.60;;;;;;;;;;106730;1310;22139;-75
2022/11/28 10:01:22;;;;;;;28.10;13.80;;;;;;;;;;106786;1310;22069;-75
2022/11/28 10:04:08;;;;;;;32.90;14.50;;;;;;;;;;106713;1310;22123;-75
2022/11/28 10:06:53;;;;;;;28.90;13.70;;;;;;;;;;106723;1310;22044;-75
2022/11/28 10:09:33;;;;;;;27.70;13.20;;;;;;;;;;106715;1309;21939;-75
2022/11/28 10:12:19;;;;;;;27.80;13.30;;;;;;;;;;106707;1304;22076;-75
2022/11/28 10:14:56;;;;;;;26.10;13.10;;;;;;;;;;106690;1306;22133;-75
2022/11/28 10:17:53;;;;;;;28.80;13.80;;;;;;;;;;106680;1310;21946;-75
2022/11/28 10:20:28;;;;;;;26.80;13.20;;;;;;;;;;106716;1292;22127;-75
2022/11/28 10:23:31;;;;;;;23.90;11.60;;;;;;;;;;106637;1310;22653;-74
2022/11/28 10:26:29;;;;;;;24.00;11.30;;;;;;;;;;106682;1309;22060;-75
2022/11/28 10:28:59;;;;;;;25.10;11.50;;;;;;;;;;106540;1309;22198;-74
2022/11/28 10:31:55;;;;;;;22.20;11.80;;;;;;;;;;106644;1310;22085;-74
2022/11/28 10:34:42;;;;;;;25.20;12.30;;;;;;;;;;106645;1310;22040;-74
2022/11/28 10:37:24;;;;;;;24.10;12.10;;;;;;;;;;106746;1309;22099;-75
2022/11/28 10:39:54;;;;;;;24.00;11.30;;;;;;;;;;106617;1310;22717;-75
2022/11/28 10:42:31;;;;;;;19.50;10.10;;;;;;;;;;106660;1308;22316;-75
2022/11/28 10:45:20;;;;;;;23.30;11.00;;;;;;;;;;106553;1309;22277;-74
2022/11/28 10:47:57;;;;;;;18.50;9.70;;;;;;;;;;106578;1309;21881;-75
2022/11/28 10:50:44;;;;;;;19.10;9.00;;;;;;;;;;106619;1310;22119;-74
2022/11/28 10:53:36;;;;;;;18.60;9.60;;;;;;;;;;106683;1310;22043;-75
2022/11/28 10:56:12;;;;;;;20.40;9.80;;;;;;;;;;106680;1310;22088;-74
2022/11/28 10:59:07;;;;;;;21.30;9.10;;;;;;;;;;106611;1310;22091;-75
2022/11/28 11:01:40;;;;;;;18.60;9.10;;;;;;;;;;106768;1291;22043;-75
2022/11/28 11:04:21;;;;;;;21.80;10.20;;;;;;;;;;106715;1305;22784;-75
2022/11/28 11:07:11;;;;;;;22.10;10.60;;;;;;;;;;106655;1301;22532;-75
2022/11/28 11:09:42;;;;;;;17.70;9.60;;;;;;;;;;106630;1304;22541;-75
2022/11/28 11:12:17;;;;;;;18.70;9.30;;;;;;;;;;106638;1310;22081;-75
2022/11/28 11:22:02;;;;;;;19.30;9.90;;;;;;;;;;100499;1341;544764;-79
2022/11/28 11:24:29;;;;;;;23.60;11.30;;;;;;;;;;102639;1317;24315;-80
2022/11/28 11:27:04;;;;;;;22.10;11.10;;;;;;;;;;102435;1298;22556;-75
2022/11/28 11:29:35;;;;;;;24.70;11.20;;;;;;;;;;102748;1317;24405;-81
2022/11/28 11:32:05;;;;;;;22.60;11.10;;;;;;;;;;102551;1320;25553;-77
2022/11/28 11:34:52;;;;;;;22.90;11.00;;;;;;;;;;101624;1314;1478371;-75
2022/11/28 11:37:25;;;;;;;20.90;10.20;;;;;;;;;;102770;1313;25272;-80
2022/11/28 11:39:57;;;;;;;21.50;9.70;;;;;;;;;;102931;1316;23896;-82
2022/11/28 11:42:25;;;;;;;23.80;11.60;;;;;;;;;;102985;1314;25216;-78
2022/11/28 11:44:55;;;;;;;22.40;11.00;;;;;;;;;;102801;1317;22579;-75
2022/11/28 11:47:39;;;;;;;19.30;9.70;;;;;;;;;;102865;1317;22481;-80
2022/11/28 11:50:17;;;;;;;22.00;11.30;;;;;;;;;;102867;1317;23960;-76
2022/11/28 11:53:05;;;;;;;21.80;11.00;;;;;;;;;;102902;1309;22984;-76
2022/11/28 11:55:36;;;;;;;22.30;10.80;;;;;;;;;;102854;1307;25453;-79
2022/11/28 11:58:09;;;;;;;21.30;10.50;;;;;;;;;;102965;1313;24069;-79
2022/11/28 12:00:40;;;;;;;21.00;10.30;;;;;;;;;;102934;1313;22697;-77
2022/11/28 12:03:09;;;;;;;22.40;10.30;;;;;;;;;;102976;1313;22569;-79
2022/11/28 12:05:43;;;;;;;22.90;11.10;;;;;;;;;;103021;1301;22608;-82
2022/11/28 12:08:14;;;;;;;23.50;10.60;;;;;;;;;;102955;1317;22468;-74
2022/11/28 12:10:54;;;;;;;22.90;11.20;;;;;;;;;;102985;1308;22500;-82
2022/11/28 12:13:22;;;;;;;26.10;12.40;;;;;;;;;;103027;1313;24289;-79
2022/11/28 12:15:55;;;;;;;23.60;11.50;;;;;;;;;;102934;1316;23125;-80
2022/11/28 12:18:45;;;;;;;23.90;10.70;;;;;;;;;;102928;1317;22504;-75
2022/11/28 12:21:13;;;;;;;20.60;9.90;;;;;;;;;;103098;1305;22493;-80
2022/11/28 12:23:49;;;;;;;22.60;11.30;;;;;;;;;;103027;1317;22483;-79
2022/11/28 12:26:29;;;;;;;22.70;11.10;;;;;;;;;;102791;1317;22601;-75
2022/11/28 12:28:56;;;;;;;20.10;10.80;;;;;;;;;;102937;1317;24327;-82
2022/11/28 12:31:39;;;;;;;23.30;11.00;;;;;;;;;;102883;1308;24324;-79
2022/11/28 12:34:24;;;;;;;23.50;11.60;;;;;;;;;;102938;1316;25534;-83
2022/11/28 12:37:11;;;;;;;23.80;11.80;;;;;;;;;;102939;1317;22474;-82
2022/11/28 12:39:38;;;;;;;21.00;11.10;;;;;;;;;;103178;1310;25322;-77
2022/11/28 12:42:18;;;;;;;24.40;11.50;;;;;;;;;;103300;1308;24465;-75
2022/11/28 12:44:56;;;;;;;23.80;12.30;;;;;;;;;;102995;1310;22593;-81
2022/11/28 12:47:49;;;;;;;22.70;11.50;;;;;;;;;;103071;1314;26564;-77
2022/11/28 12:50:28;;;;;;;26.40;12.60;;;;;;;;;;103222;1295;22937;-76
2022/11/28 12:53:11;;;;;;;27.00;12.00;;;;;;;;;;102997;1289;22481;-75
2022/11/28 12:55:47;;;;;;;22.60;10.70;;;;;;;;;;103092;1289;24142;-76
2022/11/28 12:58:28;;;;;;;23.60;11.10;;;;;;;;;;103176;1287;22483;-78
2022/11/28 13:01:01;;;;;;;25.20;11.80;;;;;;;;;;103209;1295;22467;-78
2022/11/28 13:03:55;;;;;;;24.40;12.20;;;;;;;;;;103245;1292;24268;-77
2022/11/28 13:06:46;;;;;;;25.30;12.40;;;;;;;;;;103048;1285;25249;-76
2022/11/28 13:09:13;;;;;;;25.20;11.90;;;;;;;;;;103342;1288;22489;-77
2022/11/28 13:11:58;;;;;;;22.90;9.80;;;;;;;;;;103141;1294;23830;-77
2022/11/28 13:14:36;;;;;;;14.30;7.00;;;;;;;;;;103202;1285;22574;-77
2022/11/28 13:17:15;;;;;;;14.30;7.50;;;;;;;;;;102987;1296;25215;-77
2022/11/28 13:19:52;;;;;;;15.70;7.10;;;;;;;;;;103196;1299;24249;-75
2022/11/28 13:22:23;;;;;;;17.20;7.90;;;;;;;;;;103096;1290;22484;-76
2022/11/28 13:24:49;;;;;;;15.70;7.10;;;;;;;;;;102949;1289;22529;-79
2022/11/28 13:27:32;;;;;;;15.10;7.70;;;;;;;;;;103222;1292;24359;-80
2022/11/28 13:30:07;;;;;;;15.60;6.70;;;;;;;;;;103212;1295;25250;-79
2022/11/28 13:32:44;;;;;;;13.90;7.00;;;;;;;;;;102955;1295;22600;-78
2022/11/28 13:35:12;;;;;;;15.00;7.80;;;;;;;;;;103027;1289;22599;-76
2022/11/28 13:37:42;;;;;;;16.60;7.50;;;;;;;;;;103287;1288;22467;-78
2022/11/28 13:40:12;;;;;;;16.50;8.90;;;;;;;;;;102857;1298;22494;-77
2022/11/28 13:42:58;;;;;;;24.80;10.90;;;;;;;;;;102990;1296;22531;-77
2022/11/28 13:45:33;;;;;;;32.50;14.00;;;;;;;;;;103027;1293;22493;-77
2022/11/28 13:48:19;;;;;;;29.90;13.10;;;;;;;;;;102993;1289;23356;-78
2022/11/28 13:51:01;;;;;;;23.40;11.30;;;;;;;;;;103069;1292;22575;-76
2022/11/28 13:53:28;;;;;;;28.30;12.70;;;;;;;;;;103131;1294;25071;-79
2022/11/28 13:56:04;;;;;;;23.20;11.10;;;;;;;;;;103016;1289;23852;-77
2022/11/28 13:58:34;;;;;;;24.10;10.60;;;;;;;;;;103097;1302;22491;-75
2022/11/28 14:01:06;;;;;;;29.30;12.60;;;;;;;;;;103267;1287;22763;-79
2022/11/28 14:03:35;;;;;;;41.40;15.70;;;;;;;;;;103272;1296;23278;-76
2022/11/28 14:06:04;;;;;;;47.60;17.20;;;;;;;;;;103004;1296;22482;-76
2022/11/28 14:08:36;;;;;;;38.20;15.10;;;;;;;;;;103001;1311;24331;-79
2022/11/28 14:11:19;;;;;;;36.60;15.50;;;;;;;;;;103135;1298;22559;-76
2022/11/28 14:14:01;;;;;;;33.90;15.50;;;;;;;;;;103326;1296;23204;-76
2022/11/28 14:16:47;;;;;;;32.20;14.00;;;;;;;;;;103380;1299;22493;-77
2022/11/28 14:19:22;;;;;;;25.00;11.90;;;;;;;;;;103383;1285;22498;-76
2022/11/28 14:21:55;;;;;;;22.90;10.00;;;;;;;;;;103156;1288;22589;-77
2022/11/28 14:24:34;;;;;;;20.50;9.10;;;;;;;;;;103261;1310;25547;-75
2022/11/28 14:27:02;;;;;;;17.90;8.70;;;;;;;;;;102988;1288;24358;-79
2022/11/28 14:29:37;;;;;;;17.80;8.10;;;;;;;;;;103041;1295;24239;-77
2022/11/28 14:32:05;;;;;;;23.40;10.60;;;;;;;;;;103156;1296;22686;-75
2022/11/28 14:34:43;;;;;;;22.30;10.80;;;;;;;;;;103135;1294;22603;-75
2022/11/28 14:37:26;;;;;;;19.30;8.60;;;;;;;;;;103230;1286;22463;-78
2022/11/28 14:39:54;;;;;;;20.90;8.60;;;;;;;;;;103246;1294;21703;-76
2022/11/28 14:42:24;;;;;;;23.00;10.50;;;;;;;;;;103225;1292;24466;-80
2022/11/28 14:44:51;;;;;;;28.40;11.90;;;;;;;;;;103287;1286;24285;-79
2022/11/28 14:47:32;;;;;;;31.60;14.20;;;;;;;;;;103225;1294;26480;-76